Station: Tasman Island  

  Atmospheric Gas Attenuation - ITU Rec 676-11   ----------------- dB/100km -----------------
Date Time Temp RH % AH g/m3 Dew Point Wind Direction Speed kph Gust kph Barometer mB Rainfall Since 9am 24GHz 47GHz 76GHz 122GHz 134GHz 241GHz
11/05 01:10 11.5 97 10.02 11 13 20 1034 0 22.7 29.8 48.1 126.1 123.3 424.9
11/05 01:00 11.5 97 10.02 11 15 24 1034.1 0 22.7 29.8 48.1 126.2 123.3 424.9
11/05 00:50 11.4 97 9.96 10.9 17 20 1034 0 22.6 29.8 47.9 125.6 122.6 422.4
11/05 00:40 11.4 97 9.96 10.9 17 22 1033.9 0 22.6 29.8 47.8 125.6 122.5 422.4
11/05 00:30 11.5 97 10.02 11 15 24 1033.9 0 22.7 29.8 48.1 126.1 123.3 424.9
11/05 00:20 11.3 97 9.9 10.8 17 22 1033.9 0 22.5 29.7 47.6 125.0 121.8 419.9
11/05 00:10 11.4 97 9.96 10.9 15 22 1033.8 0 22.6 29.8 47.8 125.6 122.5 422.3
11/05 00:00 11.4 97 9.96 10.9 15 24 1033.8 0 22.6 29.8 47.8 125.6 122.5 422.3
10/05 23:50 11.4 97 9.96 10.9 13 19 1033.8 0 22.6 29.8 47.8 125.6 122.5 422.3
10/05 23:40 11.4 97 9.96 10.9 15 22 1033.8 0 22.6 29.8 47.8 125.6 122.5 422.3
10/05 23:30 11.3 97 9.9 10.8 13 26 1033.8 0 22.5 29.7 47.6 125.0 121.8 419.8
10/05 23:20 11.3 95 9.69 10.6 11 15 1033.8 0 22.0 29.3 46.7 122.6 118.8 409.2
10/05 23:10 11.3 95 9.69 10.6 17 22 1033.9 0 22.0 29.3 46.7 122.6 118.8 409.3
10/05 23:00 11.4 96 9.86 10.8 17 28 1033.9 0 22.4 29.6 47.4 124.4 121.1 417.3
10/05 22:50 11.4 95 9.75 10.7 19 24 1033.9 0 22.2 29.4 46.9 123.1 119.5 411.7
10/05 22:40 11.5 95 9.81 10.8 17 24 1033.9 0 22.3 29.5 47.1 123.7 120.2 414.2
10/05 22:30 11.5 96 9.92 10.9 15 24 1034 0 22.5 29.7 47.6 125.0 121.8 419.8
10/05 22:20 11.4 95 9.75 10.7 17 20 1034 0 22.2 29.4 46.9 123.1 119.5 411.8
10/05 22:10 11.4 95 9.75 10.7 17 22 1034 0 22.2 29.4 46.9 123.1 119.5 411.8
10/05 22:00 11.6 96 9.98 11 17 26 1033.9 0 22.6 29.7 47.8 125.5 122.5 422.3
10/05 21:50 11.4 95 9.75 10.7 19 24 1034 0 22.2 29.4 46.9 123.1 119.5 411.8
10/05 21:40 11.5 95 9.81 10.8 17 24 1034 0 22.3 29.5 47.1 123.7 120.2 414.3
10/05 21:30 11.4 96 9.86 10.8 17 26 1033.9 0 22.4 29.6 47.4 124.4 121.1 417.3
10/05 21:20 11.6 95 9.88 10.9 20 24 1033.8 0 22.4 29.6 47.4 124.3 121.1 417.2
10/05 21:10 11.5 97 10.02 11 15 26 1033.7 0 22.7 29.8 48.0 126.1 123.2 424.8
10/05 21:00 11.6 97 10.08 11.1 13 24 1033.6 0 22.8 29.9 48.2 126.6 123.9 427.3
10/05 20:50 11.6 95 9.88 10.9 17 22 1033.6 0 22.4 29.5 47.4 124.3 121.0 417.1
10/05 20:40 11.5 95 9.81 10.8 19 26 1033.5 0 22.3 29.5 47.1 123.6 120.2 414.1
10/05 20:30 11.5 96 9.92 10.9 15 30 1033.4 0 22.5 29.6 47.6 124.9 121.8 419.6
10/05 20:20 11.5 95 9.81 10.8 15 22 1033.4 0 22.3 29.4 47.1 123.6 120.2 414.1
10/05 20:10 11.5 95 9.81 10.8 17 26 1033.3 0 22.3 29.4 47.1 123.6 120.2 414.0
10/05 20:00 11.6 96 9.98 11 15 26 1033.3 0 22.6 29.7 47.8 125.4 122.5 422.1
10/05 19:50 11.5 95 9.81 10.8 17 22 1033.3 0 22.3 29.4 47.1 123.6 120.2 414.0
10/05 19:40 11.5 95 9.81 10.8 17 24 1033.3 0 22.3 29.4 47.1 123.6 120.2 414.0
10/05 19:30 11.5 96 9.92 10.9 15 32 1033.2 0 22.5 29.6 47.6 124.9 121.7 419.6
10/05 19:20 11.5 95 9.81 10.8 17 22 1033.2 0 22.3 29.4 47.1 123.6 120.1 414.0
10/05 19:10 11.6 95 9.88 10.9 13 20 1033.2 0 22.4 29.5 47.3 124.2 121.0 417.0
10/05 19:00 11.5 95 9.81 10.7 15 28 1033 0 22.3 29.4 47.1 123.6 120.1 413.9
10/05 18:50 11.5 95 9.81 10.7 17 20 1032.9 0 22.3 29.4 47.1 123.5 120.1 413.9
10/05 18:40 11.5 95 9.81 10.7 17 24 1032.7 0 22.3 29.4 47.1 123.5 120.1 413.9
10/05 18:30 11.4 95 9.75 10.6 15 26 1032.6 0 22.2 29.3 46.9 123.0 119.4 411.3
10/05 18:20 11.4 95 9.75 10.6 15 19 1032.5 0 22.2 29.3 46.9 123.0 119.4 411.3
10/05 18:10 11.4 94 9.65 10.4 17 20 1032.4 0 21.9 29.2 46.4 121.8 117.9 406.2
10/05 18:00 11.3 94 9.59 10.4 15 24 1032.3 0 21.8 29.1 46.2 121.2 117.2 403.7
10/05 17:50 11.4 94 9.65 10.4 17 24 1032.2 0 21.9 29.2 46.4 121.8 117.9 406.2
10/05 17:40 11.4 94 9.65 10.4 13 20 1032.1 0 21.9 29.1 46.4 121.7 117.9 406.1
10/05 17:30 11.5 93 9.61 10.4 13 24 1032 0 21.8 29.0 46.2 121.1 117.2 403.6
10/05 17:20 11.5 93 9.61 10.4 9 20 1032 0 21.8 29.0 46.2 121.1 117.2 403.6
10/05 17:10 11.6 92 9.56 10.3 9 13 1031.9 0 21.7 28.9 45.9 120.4 116.3 400.5
10/05 17:00 11.6 92 9.56 10.3 15 26 1031.8 0 21.7 28.9 45.9 120.3 116.3 400.5
10/05 16:50 12 90 9.59 10.5 13 19 1031.8 0 21.8 28.8 45.8 120.1 116.1 399.9
10/05 16:40 12.1 90 9.65 10.6 15 24 1031.6 0 21.9 28.9 46.0 120.6 116.8 402.3
10/05 16:30 12.4 90 9.83 10.8 13 28 1031.6 0 22.3 29.1 46.6 122.2 118.9 409.7
10/05 16:20 12.4 90 9.83 10.8 15 22 1031.4 0 22.3 29.1 46.5 122.2 118.9 409.6
10/05 16:10 12.5 89 9.79 10.7 17 28 1031.4 0 22.2 29.0 46.3 121.6 118.1 407.1
10/05 16:00 12.9 90 10.14 11.3 17 32 1031.3 0 22.9 29.5 47.6 125.0 122.5 422.4
10/05 15:50 12.8 89 9.97 11 20 24 1031.3 0 22.5 29.2 46.9 123.2 120.2 414.4
10/05 15:40 12.9 89 10.03 11.1 20 28 1031.2 0 22.7 29.3 47.1 123.7 120.9 416.9
10/05 15:30 13.1 89 10.16 11.3 17 30 1031.1 0 22.9 29.4 47.5 124.8 122.4 422.2
10/05 15:20 13 89 10.09 11.2 19 26 1031.1 0 22.8 29.3 47.3 124.2 121.6 419.3
10/05 15:10 12.9 88 9.92 10.9 17 22 1031.1 0 22.4 29.1 46.6 122.4 119.3 411.4
10/05 15:00 13 88 9.98 11.1 17 28 1031 0 22.6 29.1 46.8 122.9 120.0 413.8
10/05 14:50 13.1 86 9.81 10.9 15 20 1031 0 22.2 28.8 46.0 120.8 117.5 404.8
10/05 14:40 13 86 9.75 10.8 17 24 1031 0 22.1 28.7 45.8 120.3 116.8 402.4
10/05 14:30 12.9 87 9.81 10.8 17 28 1030.9 0 22.2 28.9 46.1 121.1 117.7 405.9
10/05 14:20 13 86 9.75 10.7 15 22 1030.9 0 22.1 28.7 45.8 120.3 116.8 402.4
10/05 14:10 13 85 9.64 10.5 19 24 1030.9 0 21.8 28.6 45.4 119.0 115.2 397.0
10/05 14:00 13.1 85 9.7 10.6 17 30 1030.9 0 22.0 28.6 45.6 119.5 115.9 399.4
10/05 13:50 13.2 82 9.42 10.3 17 24 1030.9 0 21.3 28.1 44.3 116.2 111.8 385.2
10/05 13:40 13 81 9.19 9.8 15 24 1030.9 0 20.9 27.8 43.5 113.9 108.9 375.1
10/05 13:30 13.4 81 9.42 10.2 17 26 1030.9 0 21.3 28.1 44.2 115.9 111.5 384.2
10/05 13:20 13.4 82 9.53 10.5 11 19 1030.8 0 21.6 28.2 44.7 117.1 113.1 389.6
10/05 13:10 13.3 82 9.47 10.3 17 22 1030.8 0 21.5 28.2 44.5 116.6 112.4 387.1
10/05 13:00 13.3 83 9.59 10.5 15 24 1030.8 0 21.7 28.4 45.0 118.0 114.0 393.0
10/05 12:50 13.3 82 9.47 10.4 9 17 1030.8 0 21.5 28.2 44.5 116.6 112.4 387.1
10/05 12:40 13 84 9.53 10.3 15 20 1030.8 0 21.6 28.4 44.9 117.7 113.7 391.6
10/05 12:30 13.4 86 10 11.1 13 28 1030.9 0 22.6 29.0 46.7 122.5 119.7 412.6
10/05 12:20 13.5 86 10.06 11.2 13 22 1030.9 0 22.7 29.1 46.9 123.0 120.4 415.0
10/05 12:10 13.4 86 10 11.1 17 28 1031 0 22.6 29.0 46.7 122.5 119.7 412.6
10/05 12:00 13.1 88 10.04 11.2 19 39 1031.1 0 22.7 29.2 47.0 123.5 120.7 416.3
10/05 11:50 12.8 89 9.97 11 13 24 1031.2 0 22.5 29.2 46.9 123.1 120.2 414.4
10/05 11:40 13 89 10.09 11.2 17 24 1031.3 0 22.8 29.3 47.3 124.2 121.6 419.3
10/05 11:30 12.8 90 10.08 11.2 19 37 1031.3 0 22.8 29.4 47.4 124.4 121.8 419.9
10/05 11:20 12.5 90 9.9 10.9 22 28 1031.3 0 22.4 29.2 46.8 122.8 119.7 412.6
10/05 11:10 12.7 91 10.13 11.2 24 35 1031.2 0 22.9 29.5 47.7 125.2 122.6 422.9
10/05 11:00 12.5 91 10.01 11.1 22 37 1031.2 0 22.7 29.4 47.3 124.1 121.2 418.0
10/05 10:50 12.3 90 9.77 10.7 19 28 1031.2 0 22.1 29.0 46.3 121.6 118.1 407.1
10/05 10:40 12.5 90 9.9 11 19 30 1031.1 0 22.4 29.2 46.8 122.8 119.7 412.5
10/05 10:30 12.3 92 9.99 11 22 37 1031 0 22.6 29.4 47.3 124.1 121.3 418.0
10/05 10:20 12.4 90 9.83 10.9 22 32 1031 0 22.3 29.1 46.5 122.1 118.8 409.5
10/05 10:10 12.3 90 9.77 10.8 20 30 1030.9 0 22.1 29.0 46.3 121.6 118.1 407.0
10/05 10:00 12.2 91 9.82 10.8 20 41 1030.8 0 22.3 29.1 46.6 122.3 119.0 410.0
10/05 09:50 12.1 92 9.87 10.8 20 30 1030.7 0 22.4 29.2 46.9 123.0 119.8 413.0
10/05 09:40 11.9 92 9.74 10.6 15 20 1030.7 0 22.1 29.1 46.4 121.8 118.3 407.6
10/05 09:30 11.9 92 9.74 10.6 17 46 1030.6 0 22.1 29.1 46.4 121.8 118.3 407.5
10/05 09:20 11.9 93 9.85 10.8 19 37 1030.5 0 22.3 29.3 46.9 123.1 119.8 413.0
10/05 09:10 11.8 92 9.68 10.5 26 37 1030.4 0 22.0 29.0 46.2 121.3 117.5 405.0
10/05 09:00 11.7 93 9.73 10.6 19 41 1030.2 0 22.1 29.1 46.5 122.0 118.4 408.0
10/05 08:50 11.8 94 9.89 10.8 20 35 1030.1 0.2 22.4 29.4 47.1 123.7 120.5 415.4
10/05 08:40 11.7 94 9.83 10.7 19 35 1030 0.2 22.3 29.3 46.9 123.1 119.8 412.9

Last Refresh: 11-May-2026 00:50:59

Bureau of Meteorology